createdAt,value
2023-09-25T00:00:11.984Z,74.92
2023-09-25T00:01:12.908Z,74.62
2023-09-25T00:02:15.871Z,74.92
2023-09-25T00:03:15.056Z,74.92
2023-09-25T00:04:16.020Z,74.71
2023-09-25T00:05:16.016Z,74.71
2023-09-25T00:06:17.826Z,74.82
2023-09-25T00:07:17.982Z,74.82
2023-09-25T00:08:17.968Z,74.62
2023-09-25T00:09:18.448Z,74.41
2023-09-25T00:10:19.388Z,74.71
2023-09-25T00:11:20.404Z,74.41
2023-09-25T00:12:20.849Z,74.21
2023-09-25T00:13:21.777Z,74.51
2023-09-25T00:14:22.701Z,74.31
2023-09-25T00:15:23.651Z,74.31
2023-09-25T00:16:24.636Z,74.71
2023-09-25T00:17:25.596Z,74.51
2023-09-25T00:18:26.462Z,74.71
2023-09-25T00:19:27.025Z,74.62
2023-09-25T00:20:27.926Z,74.31
2023-09-25T00:21:28.916Z,74.01
2023-09-25T00:22:29.801Z,74.31
2023-09-25T00:23:30.782Z,74.21
2023-09-25T00:24:31.755Z,74.31
2023-09-25T00:25:32.380Z,74.01
2023-09-25T00:26:33.295Z,74.01
2023-09-25T00:27:34.331Z,73.80
2023-09-25T00:28:35.396Z,73.90
2023-09-25T00:29:37.418Z,74.10
2023-09-25T00:30:36.342Z,74.21
2023-09-25T00:31:37.886Z,74.31
2023-09-25T00:32:37.940Z,74.01
2023-09-25T00:33:40.958Z,74.51
2023-09-25T00:34:38.917Z,74.21
2023-09-25T00:35:41.416Z,74.31
2023-09-25T00:36:40.933Z,74.21
2023-09-25T00:37:41.419Z,74.21
2023-09-25T00:38:41.887Z,74.21
2023-09-25T00:39:43.916Z,74.51
2023-09-25T00:40:43.389Z,74.41
2023-09-25T00:41:43.900Z,74.31
2023-09-25T00:42:43.956Z,74.24
2023-09-25T00:43:44.318Z,74.55
2023-09-25T00:44:45.894Z,74.24
2023-09-25T00:45:47.520Z,74.34
2023-09-25T00:46:46.647Z,74.65
2023-09-25T00:47:47.593Z,74.75
2023-09-25T00:48:50.295Z,75.05
2023-09-25T00:49:49.390Z,74.75
2023-09-25T00:50:49.294Z,74.65
2023-09-25T00:51:50.302Z,74.95
2023-09-25T00:52:50.720Z,74.85
2023-09-25T00:53:52.405Z,74.95
2023-09-25T00:54:52.342Z,75.05
2023-09-25T00:55:53.901Z,74.65
2023-09-25T00:56:53.851Z,75.05
2023-09-25T00:57:54.763Z,75.36
2023-09-25T00:58:55.660Z,75.16
2023-09-25T00:59:56.596Z,75.19
2023-09-25T01:00:57.609Z,75.26
2023-09-25T01:01:58.112Z,75.29
2023-09-25T01:02:59.059Z,75.19
2023-09-25T01:03:59.961Z,75.60
2023-09-25T01:05:01.456Z,75.40
2023-09-25T01:06:01.909Z,75.49
2023-09-25T01:07:04.421Z,75.70
2023-09-25T01:08:04.893Z,75.90
2023-09-25T01:09:04.316Z,75.70
2023-09-25T01:10:04.730Z,75.80
2023-09-25T01:11:05.645Z,75.40
2023-09-25T01:12:07.434Z,75.70
2023-09-25T01:13:09.432Z,75.84
2023-09-25T01:14:09.921Z,75.94
2023-09-25T01:15:08.916Z,76.25
2023-09-25T01:16:10.393Z,75.94
2023-09-25T01:17:10.308Z,76.25
2023-09-25T01:18:11.973Z,75.94
2023-09-25T01:19:11.926Z,76.14
2023-09-25T01:20:13.946Z,76.14
2023-09-25T01:21:13.396Z,76.04
2023-09-25T01:22:13.932Z,76.25
2023-09-25T01:23:14.849Z,76.34
2023-09-25T01:24:15.855Z,75.94
2023-09-25T01:25:16.779Z,76.04
2023-09-25T01:26:17.681Z,75.94
2023-09-25T01:27:20.423Z,76.34
2023-09-25T01:28:19.375Z,76.04
2023-09-25T01:29:20.921Z,76.34
2023-09-25T01:30:20.878Z,76.34
2023-09-25T01:31:23.427Z,76.34
2023-09-25T01:32:22.396Z,76.34
2023-09-25T01:33:23.367Z,76.34
2023-09-25T01:34:25.437Z,76.25
2023-09-25T01:35:25.417Z,76.25
2023-09-25T01:36:25.896Z,76.65
2023-09-25T01:37:26.787Z,76.59
2023-09-25T01:38:27.706Z,76.38
2023-09-25T01:39:28.656Z,76.38
2023-09-25T01:40:30.408Z,76.68
2023-09-25T01:41:30.323Z,76.48
2023-09-25T01:42:31.264Z,76.59
2023-09-25T01:43:34.927Z,76.89
2023-09-25T01:44:34.409Z,76.59
2023-09-25T01:45:33.337Z,76.59
2023-09-25T01:46:34.922Z,76.48
2023-09-25T01:47:34.911Z,76.38
2023-09-25T01:48:35.806Z,76.38
2023-09-25T01:49:36.742Z,76.99
2023-09-25T01:50:37.601Z,77.29
2023-09-25T01:51:38.974Z,77.40
2023-09-25T01:52:39.406Z,76.99
2023-09-25T01:53:40.356Z,76.99
2023-09-25T01:54:41.335Z,76.99
2023-09-25T01:55:43.473Z,76.59
2023-09-25T01:56:45.396Z,76.89
2023-09-25T01:57:44.966Z,76.89
2023-09-25T01:58:44.935Z,77.09
2023-09-25T01:59:44.845Z,77.09
2023-09-25T02:00:45.811Z,77.20
2023-09-25T02:01:47.459Z,77.40
2023-09-25T02:02:47.490Z,77.40
2023-09-25T02:03:48.146Z,77.20
2023-09-25T02:04:51.668Z,76.99
2023-09-25T02:05:49.319Z,77.33
2023-09-25T02:06:50.907Z,77.53
2023-09-25T02:07:50.826Z,77.94
2023-09-25T02:08:52.433Z,77.53
2023-09-25T02:09:52.340Z,77.64
2023-09-25T02:10:53.325Z,77.74
2023-09-25T02:11:54.242Z,77.94
2023-09-25T02:12:55.147Z,78.35
2023-09-25T02:13:57.995Z,78.35
2023-09-25T02:14:56.931Z,78.15
2023-09-25T02:16:01.449Z,78.15
2023-09-25T02:16:58.383Z,78.05
2023-09-25T02:18:00.964Z,77.94
2023-09-25T02:19:00.444Z,78.35
2023-09-25T02:20:01.450Z,77.94
2023-09-25T02:21:02.917Z,78.15
2023-09-25T02:22:01.859Z,77.94
2023-09-25T02:23:03.413Z,78.05
2023-09-25T02:24:04.950Z,78.05
2023-09-25T02:25:05.417Z,78.05
2023-09-25T02:26:04.813Z,78.15
2023-09-25T02:27:05.734Z,78.55
2023-09-25T02:28:07.934Z,78.05
2023-09-25T02:29:07.942Z,78.25
2023-09-25T02:30:09.949Z,78.35
2023-09-25T02:31:08.969Z,78.05
2023-09-25T02:32:09.388Z,78.45
2023-09-25T02:33:10.337Z,78.15
2023-09-25T02:34:11.914Z,78.35
2023-09-25T02:35:12.427Z,78.35
2023-09-25T02:36:13.986Z,78.35
2023-09-25T02:37:12.852Z,78.39
2023-09-25T02:38:13.685Z,78.39
2023-09-25T02:39:14.668Z,78.39
2023-09-25T02:40:16.949Z,78.28
2023-09-25T02:41:16.369Z,78.59
2023-09-25T02:42:20.025Z,78.39
2023-09-25T02:43:17.914Z,78.39
2023-09-25T02:44:18.844Z,78.28
2023-09-25T02:45:21.499Z,78.49
2023-09-25T02:46:20.444Z,78.59
2023-09-25T02:47:21.341Z,78.39
2023-09-25T02:48:22.388Z,78.49
2023-09-25T02:49:22.890Z,78.59
2023-09-25T02:50:23.814Z,78.59
2023-09-25T02:51:24.769Z,78.59
2023-09-25T02:52:25.705Z,78.49
2023-09-25T02:53:26.650Z,78.80
2023-09-25T02:54:29.558Z,78.39
2023-09-25T02:55:28.466Z,78.39
2023-09-25T02:56:29.372Z,78.80
2023-09-25T02:57:32.011Z,78.69
2023-09-25T02:58:30.901Z,78.59
2023-09-25T02:59:31.828Z,78.49
2023-09-25T03:00:32.934Z,78.80
2023-09-25T03:01:33.383Z,78.80
2023-09-25T03:02:34.334Z,78.80
2023-09-25T03:03:35.932Z,78.89
2023-09-25T03:04:35.921Z,78.80
2023-09-25T03:05:36.373Z,78.89
2023-09-25T03:06:37.355Z,78.59
2023-09-25T03:07:38.249Z,78.80
2023-09-25T03:08:39.162Z,79.00
2023-09-25T03:09:40.148Z,78.89
2023-09-25T03:10:41.919Z,79.20
2023-09-25T03:11:41.889Z,79.00
2023-09-25T03:12:42.375Z,79.00
2023-09-25T03:13:43.290Z,78.80
2023-09-25T03:14:45.973Z,78.69
2023-09-25T03:15:47.582Z,79.00
2023-09-25T03:16:46.447Z,79.00
2023-09-25T03:17:46.962Z,78.89
2023-09-25T03:18:47.518Z,78.80
2023-09-25T03:19:48.116Z,79.03
2023-09-25T03:20:49.067Z,78.93
2023-09-25T03:21:50.041Z,79.14
2023-09-25T03:22:51.464Z,79.20
2023-09-25T03:23:54.282Z,79.41
2023-09-25T03:24:53.430Z,79.30
2023-09-25T03:25:53.364Z,79.00
2023-09-25T03:26:54.286Z,79.00
2023-09-25T03:27:55.939Z,79.20
2023-09-25T03:28:57.444Z,79.24
2023-09-25T03:29:56.656Z,79.14
2023-09-25T03:30:58.503Z,79.14
2023-09-25T03:31:58.438Z,79.20
2023-09-25T03:32:59.968Z,79.41
2023-09-25T03:33:59.846Z,79.34
2023-09-25T03:35:00.832Z,79.54
2023-09-25T03:36:01.285Z,79.24
2023-09-25T03:37:02.202Z,79.30
2023-09-25T03:38:03.927Z,79.10
2023-09-25T03:39:03.989Z,79.50
2023-09-25T03:40:04.946Z,79.10
2023-09-25T03:41:05.831Z,79.34
2023-09-25T03:42:08.470Z,79.34
2023-09-25T03:43:08.979Z,79.24
2023-09-25T03:44:07.892Z,79.14
2023-09-25T03:45:08.847Z,79.54
2023-09-25T03:46:11.458Z,79.14
2023-09-25T03:47:10.361Z,79.34
2023-09-25T03:48:12.578Z,79.44
2023-09-25T03:49:14.938Z,79.34
2023-09-25T03:50:12.914Z,79.54
2023-09-25T03:51:14.541Z,79.54
2023-09-25T03:52:19.480Z,79.44
2023-09-25T03:53:21.942Z,79.75
2023-09-25T03:54:16.521Z,79.64
2023-09-25T03:55:20.936Z,79.64
2023-09-25T03:56:19.467Z,79.44
2023-09-25T03:57:18.386Z,79.75
2023-09-25T03:58:23.944Z,79.85
2023-09-25T03:59:20.442Z,79.95
2023-09-25T04:00:20.390Z,79.75
2023-09-25T04:01:24.085Z,79.64
2023-09-25T04:02:23.946Z,79.64
2023-09-25T04:03:23.556Z,79.64
2023-09-25T04:04:23.714Z,79.54
2023-09-25T04:05:25.961Z,79.85
2023-09-25T04:06:25.446Z,79.79
2023-09-25T04:07:25.897Z,79.99
2023-09-25T04:08:26.832Z,80.09
2023-09-25T04:09:38.686Z,80.09
2023-09-25T04:10:29.433Z,79.89
2023-09-25T04:11:30.954Z,80.19
2023-09-25T04:12:31.497Z,80.09
2023-09-25T04:13:34.996Z,79.95
2023-09-25T04:14:32.481Z,79.99
2023-09-25T04:15:32.035Z,79.89
2023-09-25T04:16:35.081Z,80.19
2023-09-25T04:17:32.493Z,80.19
2023-09-25T04:18:34.110Z,80.19
2023-09-25T04:19:35.046Z,80.29
2023-09-25T04:20:34.940Z,80.09
2023-09-25T04:21:38.491Z,80.29
2023-09-25T04:22:36.384Z,80.09
2023-09-25T04:23:38.939Z,80.19
2023-09-25T04:24:37.910Z,80.29
2023-09-25T04:25:39.678Z,80.40
2023-09-25T04:26:42.449Z,80.50
2023-09-25T04:27:40.429Z,80.40
2023-09-25T04:28:41.953Z,80.19
2023-09-25T04:29:42.489Z,80.29
2023-09-25T04:30:43.043Z,80.29
2023-09-25T04:31:42.976Z,80.40
2023-09-25T04:32:43.995Z,80.19
2023-09-25T04:33:44.952Z,80.50
2023-09-25T04:34:47.457Z,80.40
2023-09-25T04:35:46.979Z,80.29
2023-09-25T04:36:47.589Z,80.40
2023-09-25T04:37:49.480Z,80.29
2023-09-25T04:38:48.573Z,80.40
2023-09-25T04:39:49.979Z,80.19
2023-09-25T04:40:49.869Z,80.50
2023-09-25T04:41:50.819Z,80.29
2023-09-25T04:42:51.773Z,80.19
2023-09-25T04:43:53.455Z,80.19
2023-09-25T04:44:53.420Z,80.40
2023-09-25T04:45:56.105Z,79.89
2023-09-25T04:46:56.963Z,80.09
2023-09-25T04:47:55.902Z,80.09
2023-09-25T04:49:01.589Z,80.50
2023-09-25T04:49:58.467Z,80.40
2023-09-25T04:50:58.442Z,79.79
2023-09-25T04:52:00.976Z,80.09
2023-09-25T04:53:01.473Z,79.89
2023-09-25T04:54:01.950Z,80.09
2023-09-25T04:55:02.979Z,79.89
2023-09-25T04:56:01.906Z,79.68
2023-09-25T04:57:02.832Z,79.89
2023-09-25T04:58:04.532Z,79.68
2023-09-25T04:59:04.499Z,80.09
2023-09-25T05:00:10.008Z,79.68
2023-09-25T05:01:06.472Z,79.99
2023-09-25T05:02:07.484Z,79.99
2023-09-25T05:03:07.466Z,79.99
2023-09-25T05:04:08.347Z,79.48
2023-09-25T05:05:09.277Z,79.68
2023-09-25T05:06:10.070Z,79.58
2023-09-25T05:07:11.054Z,79.58
2023-09-25T05:08:11.860Z,79.48
2023-09-25T05:09:13.515Z,79.58
2023-09-25T05:10:13.959Z,79.48
2023-09-25T05:11:14.480Z,79.48
2023-09-25T05:12:14.982Z,79.79
2023-09-25T05:13:14.969Z,79.75
2023-09-25T05:14:16.959Z,79.58
2023-09-25T05:15:16.389Z,79.54
2023-09-25T05:16:19.134Z,79.44
2023-09-25T05:17:18.066Z,79.03
2023-09-25T05:18:19.102Z,79.14
2023-09-25T05:19:19.586Z,79.24
2023-09-25T05:20:20.493Z,79.14
2023-09-25T05:21:21.488Z,79.24
2023-09-25T05:22:21.890Z,79.44
2023-09-25T05:23:23.459Z,79.27
2023-09-25T05:24:23.370Z,79.34
2023-09-25T05:25:24.978Z,79.34
2023-09-25T05:26:24.931Z,79.24
2023-09-25T05:27:25.880Z,79.27
2023-09-25T05:28:27.452Z,79.07
2023-09-25T05:29:27.965Z,79.07
2023-09-25T05:30:28.010Z,79.17
2023-09-25T05:31:28.654Z,79.27
2023-09-25T05:32:29.983Z,79.27
2023-09-25T05:33:29.997Z,79.17
2023-09-25T05:34:30.472Z,79.24
2023-09-25T05:35:33.961Z,79.07
2023-09-25T05:36:31.971Z,79.17
2023-09-25T05:37:32.989Z,79.27
2023-09-25T05:38:33.476Z,79.14
2023-09-25T05:39:33.425Z,79.34
2023-09-25T05:40:34.379Z,79.03
2023-09-25T05:41:36.967Z,79.44
2023-09-25T05:42:37.565Z,79.44
2023-09-25T05:43:36.475Z,78.83
2023-09-25T05:44:37.429Z,78.93
2023-09-25T05:45:38.429Z,79.03
2023-09-25T05:46:39.444Z,78.63
2023-09-25T05:47:41.503Z,78.83
2023-09-25T05:48:41.024Z,79.03
2023-09-25T05:49:42.003Z,78.93
2023-09-25T05:50:41.896Z,78.73
2023-09-25T05:51:42.999Z,78.73
2023-09-25T05:52:43.473Z,78.83
2023-09-25T05:53:44.448Z,78.83
2023-09-25T05:54:46.068Z,78.53
2023-09-25T05:55:47.057Z,78.83
2023-09-25T05:56:48.491Z,78.93
2023-09-25T05:57:49.514Z,78.93
2023-09-25T05:58:48.790Z,78.93
2023-09-25T05:59:49.327Z,79.03
2023-09-25T06:00:51.137Z,78.83
2023-09-25T06:01:52.011Z,78.93
2023-09-25T06:02:52.561Z,78.73
2023-09-25T06:03:53.679Z,78.93
2023-09-25T06:04:53.196Z,78.93
2023-09-25T06:05:53.658Z,78.73
2023-09-25T06:06:54.600Z,78.93
2023-09-25T06:07:55.505Z,79.24
2023-09-25T06:08:58.992Z,78.93
2023-09-25T06:09:57.433Z,78.63
2023-09-25T06:10:58.329Z,78.63
2023-09-25T06:11:59.244Z,78.53
2023-09-25T06:13:00.200Z,78.69
2023-09-25T06:14:02.980Z,78.69
2023-09-25T06:15:02.515Z,78.89
2023-09-25T06:16:04.018Z,78.69
2023-09-25T06:17:03.000Z,78.69
2023-09-25T06:18:03.785Z,79.30
2023-09-25T06:19:09.002Z,78.80
2023-09-25T06:20:05.480Z,78.80
2023-09-25T06:21:06.978Z,78.39
2023-09-25T06:22:06.468Z,78.80
2023-09-25T06:23:07.489Z,78.69
2023-09-25T06:24:10.731Z,78.49
2023-09-25T06:25:08.987Z,78.39
2023-09-25T06:26:08.895Z,78.89
2023-09-25T06:27:09.865Z,78.49
2023-09-25T06:28:10.786Z,78.15
2023-09-25T06:29:11.691Z,78.55
2023-09-25T06:30:13.531Z,78.15
2023-09-25T06:31:13.572Z,78.25
2023-09-25T06:32:16.091Z,77.94
2023-09-25T06:33:15.041Z,78.15
2023-09-25T06:34:16.714Z,78.05
2023-09-25T06:35:16.262Z,78.15
2023-09-25T06:36:18.999Z,77.74
2023-09-25T06:37:19.486Z,78.25
2023-09-25T06:38:19.971Z,78.05
2023-09-25T06:39:20.001Z,77.70
2023-09-25T06:40:22.484Z,77.91
2023-09-25T06:41:20.907Z,77.70
2023-09-25T06:42:21.860Z,77.70
2023-09-25T06:43:22.741Z,77.81
2023-09-25T06:44:23.648Z,77.91
2023-09-25T06:45:25.556Z,77.50
2023-09-25T06:46:26.521Z,77.40
2023-09-25T06:47:27.012Z,77.29
2023-09-25T06:48:27.000Z,77.50
2023-09-25T06:49:27.872Z,77.50
2023-09-25T06:50:29.495Z,77.81
2023-09-25T06:51:29.439Z,77.20
2023-09-25T06:52:30.386Z,77.77
2023-09-25T06:53:32.023Z,77.47
2023-09-25T06:54:33.088Z,77.36
2023-09-25T06:55:32.614Z,77.06
2023-09-25T06:56:33.004Z,77.26
2023-09-25T06:57:36.501Z,77.36
2023-09-25T06:58:34.506Z,77.06
2023-09-25T06:59:36.051Z,76.75
2023-09-25T07:00:54.345Z,77.16
2023-09-25T07:01:37.865Z,77.06
2023-09-25T07:02:38.004Z,77.06
2023-09-25T07:03:40.682Z,76.95
2023-09-25T07:04:38.849Z,77.26
2023-09-25T07:05:39.343Z,77.36
2023-09-25T07:06:40.298Z,76.95
2023-09-25T07:07:41.233Z,77.06
2023-09-25T07:08:42.152Z,77.06
2023-09-25T07:09:43.090Z,77.16
2023-09-25T07:10:49.042Z,77.06
2023-09-25T07:11:47.500Z,77.26
2023-09-25T07:12:45.424Z,77.36
2023-09-25T07:13:48.012Z,77.26
2023-09-25T07:14:49.472Z,77.47
2023-09-25T07:15:48.572Z,76.95
2023-09-25T07:16:50.092Z,77.16
2023-09-25T07:17:49.722Z,76.72
2023-09-25T07:18:50.539Z,77.22
2023-09-25T07:19:50.754Z,77.12
2023-09-25T07:20:51.687Z,76.92
2023-09-25T07:21:54.526Z,77.53
2023-09-25T07:22:55.532Z,77.02
2023-09-25T07:23:55.505Z,76.31
2023-09-25T07:24:55.001Z,76.61
2023-09-25T07:25:55.490Z,76.51
2023-09-25T07:26:55.893Z,76.61
2023-09-25T07:27:56.912Z,76.58
2023-09-25T07:28:59.112Z,76.58
2023-09-25T07:29:58.051Z,76.78
2023-09-25T07:30:59.019Z,76.28
2023-09-25T07:31:59.983Z,75.76
2023-09-25T07:33:00.466Z,76.17
2023-09-25T07:34:01.402Z,76.14
2023-09-25T07:35:03.039Z,75.73
2023-09-25T07:36:05.638Z,75.63
2023-09-25T07:37:04.480Z,75.32
2023-09-25T07:38:04.978Z,75.52
2023-09-25T07:39:04.951Z,75.93
2023-09-25T07:40:05.837Z,74.92
2023-09-25T07:41:08.533Z,75.32
2023-09-25T07:42:08.026Z,74.78
2023-09-25T07:43:08.737Z,75.29
2023-09-25T07:44:11.022Z,74.58
2023-09-25T07:45:09.583Z,75.09
2023-09-25T07:46:10.656Z,74.98
2023-09-25T07:47:12.122Z,74.88
2023-09-25T07:48:12.748Z,74.98
2023-09-25T07:49:12.405Z,74.65
2023-09-25T07:50:13.310Z,74.34
2023-09-25T07:51:17.128Z,74.54
2023-09-25T07:52:14.998Z,74.14
2023-09-25T07:53:16.140Z,73.80
2023-09-25T07:54:16.370Z,72.58
2023-09-25T07:55:17.998Z,73.39
2023-09-25T07:56:17.948Z,73.39
2023-09-25T07:57:20.726Z,73.90
2023-09-25T07:58:19.738Z,73.86
2023-09-25T07:59:22.558Z,72.45
2023-09-25T08:00:21.528Z,72.65
2023-09-25T08:01:24.094Z,72.34
2023-09-25T08:02:23.523Z,71.94
2023-09-25T08:03:24.577Z,72.72
2023-09-25T08:04:27.118Z,71.60
2023-09-25T08:05:25.109Z,72.31
2023-09-25T08:06:26.197Z,72.31
2023-09-25T08:07:26.684Z,71.91
2023-09-25T08:08:34.513Z,71.80
2023-09-25T08:09:29.043Z,71.00
2023-09-25T08:10:29.553Z,71.20
2023-09-25T08:11:29.480Z,72.11
2023-09-25T08:12:30.374Z,70.79
2023-09-25T08:13:34.019Z,71.30
2023-09-25T08:14:32.527Z,72.28
2023-09-25T08:15:35.035Z,71.37
2023-09-25T08:16:34.067Z,71.47
2023-09-25T08:17:34.561Z,71.37
2023-09-25T08:18:35.532Z,70.65
2023-09-25T08:19:35.978Z,70.12
2023-09-25T08:20:39.503Z,70.22
2023-09-25T08:21:39.018Z,70.22
2023-09-25T08:22:38.049Z,70.62
2023-09-25T08:23:39.511Z,69.48
2023-09-25T08:24:42.567Z,70.18
2023-09-25T08:25:42.029Z,69.18
2023-09-25T08:26:40.960Z,70.18
2023-09-25T08:27:43.572Z,70.15
2023-09-25T08:28:43.515Z,69.55
2023-09-25T08:29:44.036Z,68.43
2023-09-25T08:30:44.615Z,69.24
2023-09-25T08:31:44.597Z,69.01
2023-09-25T08:32:45.668Z,68.30
2023-09-25T08:33:47.050Z,68.20
2023-09-25T08:34:47.528Z,68.71
2023-09-25T08:35:47.471Z,68.67
2023-09-25T08:36:48.371Z,68.37
2023-09-25T08:37:52.021Z,68.07
2023-09-25T08:38:54.532Z,69.04
2023-09-25T08:39:52.039Z,68.24
2023-09-25T08:40:50.953Z,67.23
2023-09-25T08:41:53.535Z,66.99
2023-09-25T08:43:01.972Z,66.69
2023-09-25T08:43:56.055Z,67.10
2023-09-25T08:44:54.539Z,66.39
2023-09-25T08:45:57.583Z,66.49
2023-09-25T08:46:55.589Z,66.19
2023-09-25T08:47:56.083Z,64.67
2023-09-25T08:48:57.263Z,64.78
2023-09-25T08:50:02.532Z,64.87
2023-09-25T08:51:01.019Z,64.87
2023-09-25T08:51:59.522Z,64.98
2023-09-25T08:53:02.584Z,65.85
2023-09-25T08:54:03.512Z,65.05
2023-09-25T08:55:02.066Z,63.73
2023-09-25T08:56:02.522Z,64.64
2023-09-25T08:57:04.547Z,63.93
2023-09-25T08:58:03.518Z,64.75
2023-09-25T08:59:04.516Z,62.73
2023-09-25T09:00:05.519Z,63.03
2023-09-25T09:01:12.559Z,63.23
2023-09-25T09:02:06.423Z,62.93
2023-09-25T09:03:08.162Z,64.11
2023-09-25T09:04:09.176Z,64.51
2023-09-25T09:05:09.057Z,63.90
2023-09-25T09:06:10.542Z,63.40
2023-09-25T09:07:12.551Z,64.01
2023-09-25T09:08:13.024Z,63.47
2023-09-25T09:09:13.047Z,62.87
2023-09-25T09:10:13.051Z,62.97
2023-09-25T09:11:13.504Z,62.97
2023-09-25T09:12:14.428Z,61.86
2023-09-25T09:13:15.356Z,62.57
2023-09-25T09:14:16.242Z,62.37
2023-09-25T09:15:17.215Z,62.26
2023-09-25T09:16:20.036Z,62.06
2023-09-25T09:17:18.940Z,62.26
2023-09-25T09:18:26.484Z,61.73
2023-09-25T09:19:26.674Z,62.44
2023-09-25T09:20:24.534Z,61.53
2023-09-25T09:21:24.039Z,61.63
2023-09-25T09:22:23.544Z,63.34
2023-09-25T09:23:24.027Z,61.80
2023-09-25T09:24:24.104Z,62.21
2023-09-25T09:25:26.065Z,62.01
2023-09-25T09:26:30.042Z,62.81
2023-09-25T09:27:25.973Z,62.58
2023-09-25T09:28:28.537Z,62.27
2023-09-25T09:29:30.025Z,59.46
2023-09-25T09:30:28.452Z,60.24
2023-09-25T09:31:29.350Z,60.03
2023-09-25T09:32:31.069Z,58.53
2023-09-25T09:33:32.664Z,59.23
2023-09-25T09:34:31.883Z,58.83
2023-09-25T09:35:32.365Z,59.10
2023-09-25T09:36:36.148Z,58.00
2023-09-25T09:37:36.028Z,58.09
2023-09-25T09:38:38.035Z,57.59
2023-09-25T09:39:36.156Z,57.19
2023-09-25T09:40:36.155Z,57.90
2023-09-25T09:41:37.092Z,58.29
2023-09-25T09:42:38.556Z,57.79
2023-09-25T09:43:39.560Z,57.59
2023-09-25T09:44:40.129Z,57.79
2023-09-25T09:45:40.681Z,56.89
2023-09-25T09:46:40.738Z,58.09
2023-09-25T09:47:41.229Z,57.59
2023-09-25T09:48:44.583Z,57.29
2023-09-25T09:49:44.077Z,58.09
2023-09-25T09:50:44.146Z,58.00
2023-09-25T09:51:44.430Z,57.97
2023-09-25T09:52:45.345Z,57.79
2023-09-25T09:53:46.291Z,57.50
2023-09-25T09:54:47.322Z,56.79
2023-09-25T09:55:50.536Z,58.20
2023-09-25T09:56:50.063Z,58.20
2023-09-25T09:57:49.029Z,58.09
2023-09-25T09:58:50.937Z,57.90
2023-09-25T09:59:52.545Z,58.20
2023-09-25T10:00:51.506Z,58.90
2023-09-25T10:01:55.185Z,58.80
2023-09-25T10:02:53.288Z,59.20
2023-09-25T10:03:53.905Z,58.29
2023-09-25T10:04:54.604Z,58.90
2023-09-25T10:05:55.172Z,58.07
2023-09-25T10:06:56.154Z,58.67
2023-09-25T10:07:57.045Z,58.67
2023-09-25T10:08:57.959Z,58.87
2023-09-25T10:09:58.872Z,58.64
2023-09-25T10:10:59.780Z,57.84
2023-09-25T10:12:00.682Z,58.54
2023-09-25T10:13:01.585Z,58.14
2023-09-25T10:14:02.490Z,59.75
2023-09-25T10:15:03.389Z,58.44
2023-09-25T10:16:04.667Z,58.11
2023-09-25T10:17:05.067Z,57.51
2023-09-25T10:18:06.006Z,59.62
2023-09-25T10:19:06.929Z,58.39
2023-09-25T10:20:08.105Z,56.38
2023-09-25T10:21:08.542Z,56.68
2023-09-25T10:22:09.418Z,56.28
2023-09-25T10:23:12.064Z,56.28
2023-09-25T10:24:11.558Z,54.97
2023-09-25T10:25:14.065Z,54.88
2023-09-25T10:26:12.089Z,54.15
2023-09-25T10:27:13.635Z,54.75
2023-09-25T10:28:13.534Z,55.02
2023-09-25T10:29:14.483Z,54.93
2023-09-25T10:30:15.507Z,55.15
2023-09-25T10:31:15.954Z,54.35
2023-09-25T10:32:17.557Z,54.15
2023-09-25T10:33:17.475Z,54.25
2023-09-25T10:34:18.521Z,53.85
2023-09-25T10:35:19.058Z,54.17
2023-09-25T10:36:19.963Z,54.68
2023-09-25T10:37:21.564Z,55.47
2023-09-25T10:39:22.411Z,54.97
2023-09-25T10:40:23.333Z,55.08
2023-09-25T10:41:24.238Z,54.07
2023-09-25T10:42:25.146Z,54.80
2023-09-25T10:43:26.086Z,55.00
2023-09-25T10:44:27.606Z,53.59
2023-09-25T10:45:28.946Z,53.70
2023-09-25T10:46:28.945Z,53.59
2023-09-25T10:47:29.658Z,55.51
2023-09-25T10:48:30.646Z,55.20
2023-09-25T10:49:31.394Z,55.30
2023-09-25T10:50:34.215Z,55.38
2023-09-25T10:51:33.158Z,56.78
2023-09-25T10:52:36.745Z,54.75
2023-09-25T10:53:34.458Z,54.05
2023-09-25T10:54:35.455Z,53.02
2023-09-25T10:55:35.940Z,53.02
2023-09-25T10:56:37.557Z,51.69
2023-09-25T10:57:37.554Z,52.80
2023-09-25T10:58:38.267Z,52.09
2023-09-25T10:59:39.591Z,51.49
2023-09-25T11:00:39.858Z,50.89
2023-09-25T11:01:41.093Z,51.99
2023-09-25T11:02:42.091Z,51.89
2023-09-25T11:03:42.576Z,51.67
2023-09-25T11:04:43.123Z,51.77
2023-09-25T11:05:44.580Z,51.46
2023-09-25T11:06:45.000Z,51.77
2023-09-25T11:07:45.918Z,50.76
2023-09-25T11:08:46.809Z,51.46
2023-09-25T11:09:47.648Z,52.07
2023-09-25T11:10:48.564Z,52.74
2023-09-25T11:11:49.594Z,52.74
2023-09-25T11:12:50.021Z,51.32
2023-09-25T11:13:51.726Z,50.52
2023-09-25T11:14:51.659Z,50.72
2023-09-25T11:15:52.604Z,50.72
2023-09-25T11:16:53.600Z,50.12
2023-09-25T11:17:55.099Z,49.62
2023-09-25T11:18:55.020Z,50.62
2023-09-25T11:19:55.909Z,50.82
2023-09-25T11:20:56.853Z,51.02
2023-09-25T11:21:57.784Z,50.72
2023-09-25T11:23:12.801Z,51.52
2023-09-25T11:24:00.297Z,52.32
2023-09-25T11:25:00.304Z,50.52
2023-09-25T11:26:01.448Z,49.91
2023-09-25T11:27:02.020Z,51.32
2023-09-25T11:28:03.565Z,50.82
2023-09-25T11:29:03.465Z,51.32
2023-09-25T11:30:04.389Z,52.12
2023-09-25T11:31:05.354Z,52.52
2023-09-25T11:32:06.325Z,52.72
2023-09-25T11:33:07.250Z,51.62
2023-09-25T11:34:07.936Z,52.22
2023-09-25T11:35:08.849Z,50.42
2023-09-25T11:36:09.771Z,51.82
2023-09-25T11:37:12.638Z,50.62
2023-09-25T11:38:12.128Z,51.22
2023-09-25T11:39:12.564Z,50.42
2023-09-25T11:40:13.070Z,50.52
2023-09-25T11:41:14.066Z,50.52
2023-09-25T11:42:14.476Z,50.12
2023-09-25T11:43:15.427Z,50.32
2023-09-25T11:44:16.364Z,50.64
2023-09-25T11:45:17.293Z,49.84
2023-09-25T11:46:18.232Z,51.04
2023-09-25T11:47:19.103Z,52.17
2023-09-25T11:48:20.105Z,51.67
2023-09-25T11:49:21.806Z,51.87
2023-09-25T11:50:21.738Z,52.27
2023-09-25T11:51:23.531Z,52.27
2023-09-25T11:52:23.420Z,52.07
2023-09-25T11:53:24.346Z,52.97
2023-09-25T11:54:25.264Z,53.07
2023-09-25T11:55:28.088Z,52.97
2023-09-25T11:56:27.597Z,54.05
2023-09-25T11:57:27.995Z,53.44
2023-09-25T11:58:28.906Z,52.55
2023-09-25T11:59:29.811Z,52.14
2023-09-25T12:00:30.601Z,50.92
2023-09-25T12:01:31.410Z,50.52
2023-09-25T12:02:32.376Z,51.14
2023-09-25T12:03:33.682Z,51.72
2023-09-25T12:04:34.216Z,52.12
2023-09-25T12:05:35.112Z,52.02
2023-09-25T12:06:36.500Z,52.62
2023-09-25T12:07:36.996Z,52.62
2023-09-25T12:08:38.593Z,52.22
2023-09-25T12:09:41.203Z,50.62
2023-09-25T12:10:39.462Z,51.12
2023-09-25T12:11:40.026Z,51.62
2023-09-25T12:12:40.990Z,51.82
2023-09-25T12:13:42.582Z,51.92
2023-09-25T12:14:43.115Z,51.92
2023-09-25T12:15:46.305Z,53.12
2023-09-25T12:16:45.150Z,54.12
2023-09-25T12:17:47.329Z,53.22
2023-09-25T12:18:46.033Z,51.52
2023-09-25T12:19:46.494Z,51.52
2023-09-25T12:20:47.409Z,52.02
2023-09-25T12:21:48.415Z,52.44
2023-09-25T12:22:48.795Z,52.14
2023-09-25T12:23:50.703Z,51.64
2023-09-25T12:24:50.763Z,52.24
2023-09-25T12:25:53.618Z,51.34
2023-09-25T12:26:52.530Z,51.84
2023-09-25T12:27:54.347Z,51.97
2023-09-25T12:28:55.613Z,52.77
2023-09-25T12:29:55.025Z,53.07
2023-09-25T12:30:56.026Z,53.37
2023-09-25T12:31:56.955Z,52.57
2023-09-25T12:32:57.892Z,53.57
2023-09-25T12:34:00.610Z,53.67
2023-09-25T12:34:59.522Z,54.24
2023-09-25T12:36:00.448Z,54.55
2023-09-25T12:37:02.177Z,54.64
2023-09-25T12:38:03.632Z,54.35
2023-09-25T12:39:03.026Z,53.24
2023-09-25T12:40:03.972Z,53.44
2023-09-25T12:41:04.889Z,53.17
2023-09-25T12:42:21.250Z,53.67
2023-09-25T12:43:08.113Z,53.37
2023-09-25T12:44:07.080Z,54.27
2023-09-25T12:45:08.598Z,53.17
2023-09-25T12:46:08.579Z,53.47
2023-09-25T12:47:08.995Z,53.77
2023-09-25T12:48:10.028Z,53.57
2023-09-25T12:49:12.254Z,54.37
2023-09-25T12:50:11.379Z,54.27
2023-09-25T12:51:12.262Z,54.27
2023-09-25T12:52:14.126Z,53.47
2023-09-25T12:53:14.047Z,54.27
2023-09-25T12:54:14.984Z,53.97
2023-09-25T12:55:15.914Z,55.07
2023-09-25T12:56:16.817Z,54.77
2023-09-25T12:57:17.705Z,53.57
2023-09-25T12:58:18.636Z,54.30
2023-09-25T12:59:19.558Z,53.59
2023-09-25T13:00:20.470Z,53.50
2023-09-25T13:01:21.468Z,54.60
2023-09-25T13:02:21.931Z,54.00
2023-09-25T13:03:23.051Z,55.30